Time;durP1;ratioP1;P1;durP2;ratioP2;P2;SDS_P1;SDS_P2;PMS_P1;PMS_P2;Temp;Humidity;BMP_temperature;BMP_pressure;BME280_temperature;BME280_humidity;BME280_pressure;Samples;Min_cycle;Max_cycle;Signal;HPM_P1;HPM_P2
2022/04/13 04:01:58;;;;;;;4.85;3.85;;;7.30;99.90;;;;;;6249826;22;20012;-77
2022/04/13 04:04:23;;;;;;;6.38;3.92;;;7.30;99.90;;;;;;6252227;22;20462;-77
2022/04/13 04:06:49;;;;;;;8.23;3.78;;;7.30;99.90;;;;;;6225093;22;20448;-77
2022/04/13 04:09:15;;;;;;;5.53;3.67;;;7.20;99.90;;;;;;6251813;22;20428;-77
2022/04/13 04:11:41;;;;;;;6.03;4.20;;;7.10;99.90;;;;;;6225009;22;20351;-77
2022/04/13 04:14:07;;;;;;;4.72;3.80;;;7.10;99.90;;;;;;6252061;22;20344;-77
2022/04/13 04:16:32;;;;;;;5.93;4.18;;;7.00;99.90;;;;;;6254592;22;20017;-80
2022/04/13 04:18:58;;;;;;;6.47;4.10;;;7.00;99.90;;;;;;6255721;22;20009;-80
2022/04/13 04:21:23;;;;;;;6.57;3.92;;;6.90;99.90;;;;;;6228948;22;20009;-80
2022/04/13 04:23:49;;;;;;;6.75;3.85;;;6.90;99.90;;;;;;6229073;22;20011;-80
2022/04/13 04:26:14;;;;;;;9.07;4.10;;;6.90;99.90;;;;;;6229622;22;20019;-80
2022/04/13 04:28:41;;;;;;;5.05;4.10;;;6.80;99.90;;;;;;6257188;22;20012;-80
2022/04/13 04:31:07;;;;;;;5.63;4.00;;;6.80;99.90;;;;;;6234975;22;20040;-80
2022/04/13 04:33:33;;;;;;;8.90;4.22;;;6.70;99.90;;;;;;6255685;22;20016;-80
2022/04/13 04:35:58;;;;;;;7.97;3.95;;;6.70;99.90;;;;;;6239472;22;20044;-80
2022/04/13 04:38:26;;;;;;;7.13;4.10;;;6.70;99.90;;;;;;6257884;22;20349;-80
2022/04/13 04:40:52;;;;;;;9.20;4.15;;;6.70;99.90;;;;;;6231215;22;20034;-80
2022/04/13 04:43:18;;;;;;;5.03;4.00;;;6.70;99.90;;;;;;6258589;22;20425;-80
2022/04/13 04:45:43;;;;;;;5.88;4.20;;;6.70;99.90;;;;;;6257875;22;20009;-80
2022/04/13 04:48:09;;;;;;;6.10;4.13;;;6.70;99.90;;;;;;6258298;22;20005;-80
2022/04/13 04:50:35;;;;;;;7.40;4.50;;;6.60;99.90;;;;;;6231706;22;20071;-80
2022/04/13 04:53:00;;;;;;;7.07;4.55;;;6.70;99.90;;;;;;6231889;22;20092;-80
2022/04/13 04:55:26;;;;;;;6.95;3.92;;;6.70;99.90;;;;;;6231263;22;20436;-79
2022/04/13 04:57:52;;;;;;;7.47;4.57;;;6.70;99.90;;;;;;6259564;22;20387;-80
2022/04/13 05:00:20;;;;;;;7.75;4.22;;;6.80;99.90;;;;;;6231845;22;20015;-80
2022/04/13 05:02:53;;;;;;;6.90;4.22;;;6.80;99.90;;;;;;6228013;22;20024;-80
2022/04/13 05:05:20;;;;;;;7.63;4.20;;;6.90;99.90;;;;;;6254661;22;20016;-81
2022/04/13 05:07:46;;;;;;;10.50;4.22;;;6.90;99.90;;;;;;6228375;22;20716;-81
2022/04/13 05:10:12;;;;;;;6.70;4.68;;;7.00;99.90;;;;;;6227408;22;20012;-81
2022/04/13 05:12:43;;;;;;;4.82;3.83;;;7.10;99.90;;;;;;6254828;22;20015;-80
2022/04/13 05:15:09;;;;;;;9.27;3.95;;;7.20;99.90;;;;;;6230034;22;20017;-81
2022/04/13 05:17:37;;;;;;;4.70;3.78;;;7.30;99.90;;;;;;6254809;22;20415;-80
2022/04/13 05:20:07;;;;;;;5.70;4.00;;;7.40;99.90;;;;;;6252458;22;20055;-81
2022/04/13 05:22:32;;;;;;;8.25;4.13;;;7.50;99.90;;;;;;6252862;22;20047;-80
2022/04/13 05:25:03;;;;;;;4.97;4.00;;;7.60;99.90;;;;;;6253019;22;20089;-81
2022/04/13 05:27:29;;;;;;;6.38;3.50;;;7.60;99.90;;;;;;6252625;22;20011;-81
2022/04/13 05:29:56;;;;;;;4.15;3.40;;;7.70;99.90;;;;;;6253021;22;20066;-81
2022/04/13 05:32:21;;;;;;;5.30;3.92;;;7.90;99.90;;;;;;6253317;22;20452;-81
2022/04/13 05:34:47;;;;;;;7.10;3.50;;;8.00;99.90;;;;;;6252767;22;20012;-81
2022/04/13 05:37:12;;;;;;;5.28;3.78;;;8.10;99.90;;;;;;6255383;22;20011;-80
2022/04/13 05:39:38;;;;;;;8.55;3.92;;;8.20;99.90;;;;;;6252751;22;20041;-81
2022/04/13 05:42:04;;;;;;;5.93;3.92;;;8.30;99.90;;;;;;6255115;22;20031;-80
2022/04/13 05:44:30;;;;;;;7.90;4.18;;;8.50;99.90;;;;;;6255203;22;20044;-80
2022/04/13 05:46:55;;;;;;;6.43;4.30;;;8.60;99.90;;;;;;6253237;22;20072;-81
2022/04/13 05:49:21;;;;;;;7.10;3.90;;;8.70;99.90;;;;;;6255034;22;20084;-81
2022/04/13 05:51:46;;;;;;;6.50;4.28;;;8.90;99.90;;;;;;6253385;22;20468;-81
2022/04/13 05:54:12;;;;;;;10.27;4.85;;;9.00;99.90;;;;;;6255325;22;20012;-81
2022/04/13 05:56:37;;;;;;;8.55;4.22;;;9.20;99.90;;;;;;6253645;22;20009;-81
2022/04/13 05:59:03;;;;;;;8.43;4.40;;;9.30;99.90;;;;;;6254868;22;20039;-79
2022/04/13 06:01:28;;;;;;;8.70;5.22;;;9.50;99.90;;;;;;6253965;22;20012;-81
2022/04/13 06:03:54;;;;;;;9.07;5.07;;;9.60;99.90;;;;;;6255825;22;20460;-82
2022/04/13 06:06:21;;;;;;;7.03;5.05;;;9.70;99.90;;;;;;6254838;22;20012;-80
2022/04/13 06:08:46;;;;;;;10.55;5.55;;;9.80;99.90;;;;;;6253450;22;20008;-81
2022/04/13 06:11:12;;;;;;;9.00;5.78;;;10.00;99.90;;;;;;6253357;22;20093;-81
2022/04/13 06:13:38;;;;;;;12.43;6.13;;;10.10;99.90;;;;;;6253474;22;20012;-81
2022/04/13 06:16:04;;;;;;;12.20;5.88;;;10.20;99.90;;;;;;6252752;22;20011;-81
2022/04/13 06:18:29;;;;;;;11.30;6.60;;;10.30;99.90;;;;;;6252973;22;20009;-81
2022/04/13 06:20:55;;;;;;;14.68;5.72;;;10.50;99.90;;;;;;6253065;22;20005;-81
2022/04/13 06:23:20;;;;;;;11.60;6.00;;;10.60;99.90;;;;;;6252898;22;20017;-81
2022/04/13 06:25:46;;;;;;;8.15;6.10;;;10.70;99.90;;;;;;6253138;22;20008;-81
2022/04/13 06:28:11;;;;;;;15.30;5.97;;;10.80;99.90;;;;;;6250809;22;20394;-82
2022/04/13 06:30:37;;;;;;;11.48;6.70;;;10.90;99.90;;;;;;6254625;22;20031;-82
2022/04/13 06:33:03;;;;;;;11.55;6.05;;;11.10;99.90;;;;;;6252733;22;20012;-82
2022/04/13 06:35:28;;;;;;;12.77;6.05;;;11.10;99.90;;;;;;6256954;22;20016;-82
2022/04/13 06:37:54;;;;;;;8.20;5.65;;;11.30;99.90;;;;;;6252072;22;20167;-84
2022/04/13 06:40:19;;;;;;;12.30;5.75;;;11.40;99.90;;;;;;6252791;22;20343;-84
2022/04/13 06:42:45;;;;;;;19.02;5.85;;;11.50;99.90;;;;;;6253144;22;20507;-81
2022/04/13 06:45:14;;;;;;;8.45;5.55;;;11.70;99.90;;;;;;6252510;22;20009;-81
2022/04/13 06:47:41;;;;;;;8.35;5.18;;;11.90;99.90;;;;;;6254432;22;20004;-83
2022/04/13 06:50:08;;;;;;;6.78;5.47;;;12.10;99.90;;;;;;6251972;22;20005;-83
2022/04/13 06:52:38;;;;;;;6.75;5.93;;;12.20;99.90;;;;;;6252707;22;20013;-81
2022/04/13 06:55:04;;;;;;;10.10;6.13;;;12.40;99.90;;;;;;6256908;22;20005;-81
2022/04/13 06:57:33;;;;;;;7.20;5.93;;;12.50;99.90;;;;;;6256364;22;20009;-82
2022/04/13 06:59:59;;;;;;;8.18;5.90;;;12.60;99.90;;;;;;6252688;22;20013;-81
2022/04/13 07:02:26;;;;;;;8.00;5.63;;;12.80;99.90;;;;;;6257193;22;20011;-80
2022/04/13 07:04:53;;;;;;;8.93;5.00;;;12.90;99.90;;;;;;6255568;22;20015;-78
2022/04/13 07:07:19;;;;;;;9.82;5.18;;;13.00;99.90;;;;;;6274304;22;19997;-78
2022/04/13 07:09:44;;;;;;;7.50;4.70;;;13.20;99.90;;;;;;6275766;22;20032;-79
2022/04/13 07:12:10;;;;;;;8.07;4.25;;;13.40;99.90;;;;;;6257065;22;20009;-79
2022/04/13 07:14:35;;;;;;;5.65;3.53;;;13.50;99.90;;;;;;6254827;22;20021;-79
2022/04/13 07:17:01;;;;;;;8.25;4.00;;;13.60;99.90;;;;;;6232672;22;20008;-79
2022/04/13 07:19:26;;;;;;;5.10;3.33;;;13.70;99.90;;;;;;6232739;22;20015;-79
2022/04/13 07:21:52;;;;;;;6.50;3.33;;;13.80;99.90;;;;;;6232524;22;20005;-80
2022/04/13 07:24:20;;;;;;;6.07;3.40;;;13.90;99.90;;;;;;6232949;22;20067;-79
2022/04/13 07:26:46;;;;;;;5.95;3.60;;;14.00;99.90;;;;;;6255978;22;20000;-79
2022/04/13 07:29:11;;;;;;;8.05;3.70;;;14.10;99.90;;;;;;6229389;22;20348;-80
2022/04/13 07:31:38;;;;;;;5.10;3.20;;;14.30;99.90;;;;;;6229018;22;20009;-80
2022/04/13 07:34:03;;;;;;;4.82;3.35;;;14.50;99.90;;;;;;6232294;22;20016;-80
2022/04/13 07:36:29;;;;;;;7.03;3.55;;;14.60;99.90;;;;;;6258972;22;20436;-80
2022/04/13 07:38:55;;;;;;;4.05;3.08;;;14.70;99.90;;;;;;6258130;22;20032;-82
2022/04/13 07:41:20;;;;;;;5.55;3.30;;;14.80;99.90;;;;;;6229544;22;20012;-83
2022/04/13 07:43:47;;;;;;;6.25;3.20;;;14.90;99.90;;;;;;6229797;22;20455;-82
2022/04/13 07:46:12;;;;;;;3.95;3.10;;;15.20;99.90;;;;;;6229761;22;20012;-82
2022/04/13 07:48:38;;;;;;;6.45;3.72;;;15.20;99.90;;;;;;6228922;22;20004;-81
2022/04/13 07:51:03;;;;;;;7.35;3.92;;;15.20;99.90;;;;;;6228217;22;20024;-82
2022/04/13 07:53:29;;;;;;;11.02;4.25;;;15.30;99.90;;;;;;6228574;22;20013;-82
2022/04/13 07:55:55;;;;;;;6.93;4.05;;;15.40;99.90;;;;;;6228299;22;20016;-82
2022/04/13 07:58:21;;;;;;;7.97;4.07;;;15.40;99.90;;;;;;6229625;22;20009;-80
2022/04/13 08:00:47;;;;;;;11.27;4.13;;;15.60;99.90;;;;;;6225880;22;20020;-78
2022/04/13 08:03:13;;;;;;;8.65;4.10;;;15.70;99.90;;;;;;6224270;22;20011;-76
2022/04/13 08:05:40;;;;;;;6.35;3.90;;;15.70;99.90;;;;;;6225834;22;20315;-77
2022/04/13 08:08:06;;;;;;;7.72;3.42;;;15.90;99.90;;;;;;6226049;22;20001;-78
2022/04/13 08:10:34;;;;;;;6.65;3.50;;;16.00;99.90;;;;;;6252596;22;20004;-78
2022/04/13 08:12:59;;;;;;;11.80;3.80;;;16.20;99.90;;;;;;6228548;22;20008;-77
2022/04/13 08:15:25;;;;;;;9.23;3.65;;;16.30;99.90;;;;;;6255143;22;20021;-77
2022/04/13 08:17:51;;;;;;;7.50;3.75;;;16.40;99.90;;;;;;6228846;22;20059;-79
2022/04/13 08:20:17;;;;;;;6.75;3.67;;;16.50;99.00;;;;;;6256796;22;20079;-79
2022/04/13 08:22:43;;;;;;;5.80;3.30;;;16.70;99.90;;;;;;6228995;22;20410;-79
2022/04/13 08:25:09;;;;;;;6.70;3.90;;;16.80;98.80;;;;;;6256592;22;20538;-79
2022/04/13 08:27:35;;;;;;;5.68;3.35;;;16.90;98.40;;;;;;6229594;22;20005;-79
2022/04/13 08:30:01;;;;;;;7.93;3.65;;;16.90;98.80;;;;;;6227945;22;20361;-80
2022/04/13 08:32:26;;;;;;;9.38;3.92;;;16.90;98.10;;;;;;6227819;22;20432;-80
2022/04/13 08:34:52;;;;;;;5.45;3.72;;;17.00;99.40;;;;;;6227065;22;20009;-80
2022/04/13 08:37:22;;;;;;;6.45;3.50;;;16.80;99.00;;;;;;6227247;22;20004;-80
2022/04/13 08:39:48;;;;;;;8.77;3.40;;;16.90;98.30;;;;;;6225861;22;20035;-79
2022/04/13 08:42:35;;;;;;;6.78;3.50;;;17.00;97.50;;;;;;6228632;22;20008;-80
2022/04/13 08:45:23;;;;;;;7.78;3.90;;;17.20;96.90;;;;;;6232267;22;20012;-80
2022/04/13 08:47:56;;;;;;;6.90;3.67;;;17.20;97.70;;;;;;6229766;22;20039;-85
2022/04/13 08:50:26;;;;;;;10.75;3.97;;;17.40;97.00;;;;;;6229295;22;20009;-82
2022/04/13 08:52:56;;;;;;;10.68;3.65;;;17.50;96.60;;;;;;6257515;22;20458;-82
2022/04/13 08:55:23;;;;;;;9.95;3.80;;;17.60;96.10;;;;;;6229920;22;20095;-82
2022/04/13 08:58:08;;;;;;;11.25;3.55;;;17.80;95.90;;;;;;6258298;22;20087;-82
2022/04/13 09:00:37;;;;;;;5.65;3.70;;;17.90;96.70;;;;;;6234018;22;20012;-81
2022/04/13 09:03:15;;;;;;;9.18;3.88;;;17.90;96.40;;;;;;6230029;22;20032;-83
2022/04/13 09:05:43;;;;;;;11.77;4.10;;;18.00;96.00;;;;;;6233065;22;20008;-81
2022/04/13 09:08:25;;;;;;;9.30;3.90;;;18.40;95.80;;;;;;6259954;22;20001;-82
2022/04/13 09:10:53;;;;;;;8.23;4.00;;;18.60;95.10;;;;;;6258493;22;20005;-82
2022/04/13 09:13:24;;;;;;;8.77;3.88;;;18.70;93.40;;;;;;6230968;22;20015;-82
2022/04/13 09:15:50;;;;;;;10.32;4.10;;;18.80;94.00;;;;;;6247896;22;20023;-82
2022/04/13 09:18:16;;;;;;;12.55;4.35;;;18.90;93.30;;;;;;6262332;22;20027;-81
2022/04/13 09:20:42;;;;;;;10.13;3.90;;;19.00;94.20;;;;;;6259517;22;20557;-82
2022/04/13 09:23:07;;;;;;;8.70;3.70;;;19.20;93.20;;;;;;6283511;22;20004;-82
2022/04/13 09:25:36;;;;;;;8.63;4.30;;;19.40;92.70;;;;;;6285198;22;20008;-82
2022/04/13 09:28:02;;;;;;;8.25;3.83;;;19.60;92.40;;;;;;6256756;22;20013;-81
2022/04/13 09:30:30;;;;;;;9.50;5.53;;;19.50;92.00;;;;;;6292660;22;20024;-81
2022/04/13 09:32:56;;;;;;;9.88;3.70;;;19.40;91.40;;;;;;6269180;22;20008;-82
2022/04/13 09:35:22;;;;;;;6.40;3.92;;;19.40;91.10;;;;;;6271421;22;20421;-82
2022/04/13 09:37:48;;;;;;;14.00;4.57;;;19.40;91.20;;;;;;6299432;22;20011;-83
2022/04/13 09:40:32;;;;;;;9.60;4.53;;;19.40;91.40;;;;;;6272376;22;20012;-82
2022/04/13 09:43:08;;;;;;;9.20;4.57;;;19.50;91.50;;;;;;6299267;22;20000;-83
2022/04/13 09:45:40;;;;;;;8.25;4.15;;;19.50;91.20;;;;;;6275350;22;20074;-82
2022/04/13 09:48:10;;;;;;;9.70;4.60;;;19.50;90.50;;;;;;6274925;22;20031;-81
2022/04/13 09:50:37;;;;;;;15.07;5.18;;;19.70;90.20;;;;;;6309840;22;19988;-84
2022/04/13 09:53:05;;;;;;;12.82;4.22;;;19.60;90.40;;;;;;6271084;22;20462;-77
2022/04/13 09:55:34;;;;;;;10.68;4.75;;;19.70;91.10;;;;;;6286950;22;20444;-78
2022/04/13 09:58:07;;;;;;;10.48;4.30;;;20.00;89.90;;;;;;6288680;22;20012;-77
2022/04/13 10:00:33;;;;;;;9.10;3.97;;;19.90;88.30;;;;;;6286608;22;20039;-78
2022/04/13 10:03:07;;;;;;;7.18;3.95;;;20.10;89.10;;;;;;6283579;22;20009;-77
2022/04/13 10:05:33;;;;;;;9.30;4.28;;;19.90;88.60;;;;;;6256561;22;20058;-77
2022/04/13 10:08:10;;;;;;;9.32;4.20;;;20.10;90.00;;;;;;6284471;22;20000;-77
2022/04/13 10:10:40;;;;;;;7.00;4.35;;;20.20;88.30;;;;;;6284102;22;20008;-77
2022/04/13 10:13:06;;;;;;;8.57;4.00;;;20.20;90.40;;;;;;6258059;22;20105;-77
2022/04/13 10:15:32;;;;;;;6.28;4.20;;;20.20;88.40;;;;;;6271622;22;20461;-77
2022/04/13 10:17:59;;;;;;;5.60;3.60;;;20.10;88.50;;;;;;6254207;22;20000;-77
2022/04/13 10:20:49;;;;;;;8.40;4.05;;;20.30;89.00;;;;;;6226233;22;20528;-78
2022/04/13 10:23:15;;;;;;;5.93;4.00;;;20.70;86.90;;;;;;6252415;22;20005;-78
2022/04/13 10:25:42;;;;;;;8.65;4.03;;;21.00;85.80;;;;;;6252564;22;20015;-78
2022/04/13 10:28:12;;;;;;;5.05;3.55;;;21.10;87.40;;;;;;6252656;22;20008;-77
2022/04/13 10:30:39;;;;;;;7.22;3.65;;;21.10;88.20;;;;;;6226269;22;20035;-78
2022/04/13 10:33:06;;;;;;;6.65;3.80;;;21.30;86.00;;;;;;6252741;22;20004;-78
2022/04/13 10:35:43;;;;;;;6.82;3.78;;;21.40;87.10;;;;;;6252579;22;20005;-77
2022/04/13 10:38:09;;;;;;;8.15;3.83;;;21.50;85.50;;;;;;6243953;22;20074;-75
2022/04/13 10:40:38;;;;;;;4.70;3.80;;;21.30;87.00;;;;;;6255556;22;20008;-77
2022/04/13 10:43:05;;;;;;;7.32;3.42;;;21.20;84.20;;;;;;6253092;22;20012;-78
2022/04/13 10:45:33;;;;;;;10.48;3.53;;;21.30;84.20;;;;;;6252122;22;20031;-79
2022/04/13 10:48:07;;;;;;;7.00;3.80;;;21.40;84.20;;;;;;6252462;22;20005;-79
2022/04/13 10:50:48;;;;;;;6.70;3.38;;;21.20;84.60;;;;;;6252717;22;20457;-77
2022/04/13 10:53:46;;;;;;;6.78;3.30;;;21.50;85.50;;;;;;6225492;22;20521;-78
2022/04/13 10:56:12;;;;;;;8.18;3.55;;;21.60;82.00;;;;;;6228383;22;20009;-78
2022/04/13 10:59:18;;;;;;;7.55;3.88;;;21.60;83.20;;;;;;6218071;22;20020;-78
2022/04/13 11:01:57;;;;;;;6.20;3.50;;;21.80;81.70;;;;;;6246000;22;20009;-78
2022/04/13 11:04:24;;;;;;;5.72;3.70;;;21.80;82.20;;;;;;6252511;22;20079;-78
2022/04/13 11:06:50;;;;;;;9.00;3.47;;;21.80;82.30;;;;;;6223677;22;20424;-81
2022/04/13 11:09:32;;;;;;;6.05;2.90;;;22.10;81.10;;;;;;6252477;22;20089;-78
2022/04/13 11:12:01;;;;;;;7.97;3.60;;;22.20;76.90;;;;;;6226077;22;20009;-79
2022/04/13 11:14:27;;;;;;;5.97;3.53;;;22.30;81.00;;;;;;6252889;22;20088;-77
2022/04/13 11:17:16;;;;;;;9.68;3.28;;;22.70;78.90;;;;;;6252694;22;20397;-79
2022/04/13 11:19:42;;;;;;;5.97;3.30;;;22.90;76.90;;;;;;6232894;22;20047;-78
2022/04/13 11:22:13;;;;;;;5.72;3.10;;;23.00;77.20;;;;;;6253728;22;20008;-79
2022/04/13 11:24:46;;;;;;;8.15;3.58;;;23.20;76.10;;;;;;6226293;22;20503;-76
2022/04/13 11:27:12;;;;;;;6.43;4.18;;;23.50;76.60;;;;;;6228424;22;20827;-78
2022/04/13 11:29:39;;;;;;;6.63;3.63;;;23.50;73.50;;;;;;6255653;22;20005;-81
2022/04/13 11:32:15;;;;;;;12.00;5.95;;;23.50;77.40;;;;;;6228492;22;20000;-79
2022/04/13 11:34:46;;;;;;;5.43;3.13;;;23.60;76.70;;;;;;6253620;22;20009;-78
2022/04/13 11:37:20;;;;;;;6.20;3.30;;;23.80;77.50;;;;;;6226430;22;20009;-78
2022/04/13 11:40:05;;;;;;;4.80;3.10;;;23.90;70.70;;;;;;6225892;22;20095;-77
2022/04/13 11:42:37;;;;;;;7.32;2.63;;;23.90;72.70;;;;;;6225167;22;20015;-79
2022/04/13 11:45:08;;;;;;;6.07;2.75;;;24.00;74.20;;;;;;6254482;22;20092;-78
2022/04/13 11:47:43;;;;;;;4.70;2.78;;;24.20;70.90;;;;;;6227923;22;20456;-78
2022/04/13 11:50:18;;;;;;;7.43;3.17;;;24.40;71.00;;;;;;6227080;22;20013;-80
2022/04/13 11:52:43;;;;;;;5.05;2.85;;;24.40;70.20;;;;;;6227738;22;20441;-79
2022/04/13 11:55:19;;;;;;;6.03;2.90;;;24.50;69.60;;;;;;6228315;22;20013;-80
2022/04/13 11:58:02;;;;;;;5.78;3.03;;;24.50;71.90;;;;;;6256985;22;20032;-79
2022/04/13 12:01:05;;;;;;;5.25;2.85;;;24.50;72.00;;;;;;6254352;22;20015;-79
2022/04/13 12:03:42;;;;;;;6.72;3.28;;;24.40;72.50;;;;;;6230090;22;20005;-80
2022/04/13 12:06:16;;;;;;;10.52;3.05;;;24.40;69.10;;;;;;6254357;22;20059;-78
2022/04/13 12:08:47;;;;;;;5.03;2.95;;;24.70;73.00;;;;;;6253394;22;20031;-79
2022/04/13 12:11:17;;;;;;;7.47;2.97;;;24.90;69.00;;;;;;6252562;22;20019;-78
2022/04/13 12:14:01;;;;;;;6.78;3.15;;;24.80;67.90;;;;;;6225148;22;20009;-80
2022/04/13 12:16:30;;;;;;;14.52;4.07;;;24.70;66.90;;;;;;6252173;22;20008;-80
2022/04/13 12:19:04;;;;;;;7.72;2.90;;;25.40;69.00;;;;;;6222771;22;20001;-80
2022/04/13 12:21:32;;;;;;;8.15;3.35;;;25.70;65.60;;;;;;6247535;22;20004;-76
2022/04/13 12:24:02;;;;;;;6.40;2.60;;;25.90;66.50;;;;;;6251927;22;20020;-78
2022/04/13 12:26:36;;;;;;;6.30;2.50;;;26.10;65.10;;;;;;6225870;22;20446;-76
2022/04/13 12:29:14;;;;;;;7.22;2.97;;;26.10;61.70;;;;;;6225278;22;20531;-80
2022/04/13 12:31:53;;;;;;;4.90;2.45;;;26.10;62.50;;;;;;6265124;22;19993;-82
2022/04/13 12:34:26;;;;;;;7.47;2.95;;;26.30;61.40;;;;;;6280770;22;19993;-82
2022/04/13 12:36:57;;;;;;;6.47;2.58;;;26.30;64.20;;;;;;6252662;22;20056;-79
2022/04/13 12:39:29;;;;;;;7.13;2.28;;;26.30;61.70;;;;;;6253099;22;20015;-79
2022/04/13 12:41:55;;;;;;;4.53;2.30;;;26.20;59.80;;;;;;6225374;22;20075;-81
2022/04/13 12:44:21;;;;;;;5.90;2.17;;;26.20;59.60;;;;;;6253154;22;20499;-80
2022/04/13 12:46:46;;;;;;;6.80;2.30;;;26.60;59.00;;;;;;6227314;22;20040;-80
2022/04/13 12:49:20;;;;;;;6.93;2.60;;;26.60;56.90;;;;;;6252839;22;20012;-81
2022/04/13 12:51:45;;;;;;;6.50;2.45;;;26.00;58.70;;;;;;6227088;22;20012;-81
2022/04/13 12:54:11;;;;;;;8.07;2.03;;;25.80;59.70;;;;;;6227584;22;20368;-81
2022/04/13 12:56:40;;;;;;;4.05;1.90;;;25.70;57.20;;;;;;6254063;22;20024;-81
2022/04/13 12:59:06;;;;;;;6.30;1.80;;;25.90;58.20;;;;;;6255250;22;20123;-83
2022/04/13 13:01:38;;;;;;;8.60;2.15;;;26.50;56.30;;;;;;6227640;22;20005;-80
2022/04/13 13:04:06;;;;;;;4.63;2.20;;;26.60;54.30;;;;;;6253944;22;20012;-81
2022/04/13 13:06:33;;;;;;;5.85;2.20;;;26.90;55.60;;;;;;6227584;22;20005;-82
2022/04/13 13:09:02;;;;;;;4.63;2.38;;;27.00;54.10;;;;;;6255104;22;20011;-82
2022/04/13 13:11:36;;;;;;;6.50;2.35;;;27.10;56.90;;;;;;6254074;22;20020;-84
2022/04/13 13:14:12;;;;;;;5.93;2.20;;;26.80;56.40;;;;;;6226842;22;20012;-83
2022/04/13 13:16:43;;;;;;;9.13;2.50;;;26.70;59.70;;;;;;6253779;22;20432;-82
2022/04/13 13:19:28;;;;;;;4.38;2.50;;;26.70;59.70;;;;;;6257653;22;20005;-83
2022/04/13 13:22:16;;;;;;;6.68;2.78;;;26.90;59.90;;;;;;6285774;22;20031;-84
2022/04/13 13:24:44;;;;;;;7.30;2.75;;;27.40;57.30;;;;;;6261115;22;20040;-82
2022/04/13 13:27:11;;;;;;;7.60;3.30;;;27.40;56.90;;;;;;6285983;22;20008;-83
2022/04/13 13:29:48;;;;;;;4.15;2.60;;;27.80;55.80;;;;;;6285120;22;20092;-83
2022/04/13 13:32:19;;;;;;;7.10;2.80;;;27.70;56.70;;;;;;6258094;22;20018;-80
2022/04/13 13:34:55;;;;;;;6.05;2.40;;;27.70;56.10;;;;;;6287212;22;20016;-82
2022/04/13 13:37:48;;;;;;;6.18;2.30;;;27.60;56.10;;;;;;6287395;22;20024;-81
2022/04/13 13:40:35;;;;;;;6.88;2.60;;;28.20;55.20;;;;;;6254707;22;20040;-81
2022/04/13 13:43:02;;;;;;;4.25;2.30;;;28.90;56.10;;;;;;6259278;22;20418;-81
2022/04/13 13:45:29;;;;;;;5.13;2.70;;;28.90;55.00;;;;;;6286569;22;20513;-80
2022/04/13 13:47:55;;;;;;;8.23;2.40;;;29.00;53.60;;;;;;6286984;22;20026;-81
2022/04/13 13:50:21;;;;;;;4.88;2.67;;;28.70;52.20;;;;;;6259866;22;20015;-82
2022/04/13 13:52:47;;;;;;;6.70;2.53;;;28.60;53.60;;;;;;6259787;22;20092;-82
2022/04/13 13:55:12;;;;;;;4.95;2.30;;;28.90;51.10;;;;;;6286831;22;20064;-80
2022/04/13 13:57:38;;;;;;;5.10;2.58;;;29.00;53.20;;;;;;6286317;22;20027;-81
2022/04/13 14:00:08;;;;;;;7.93;2.70;;;29.30;52.60;;;;;;6285825;22;20008;-81
2022/04/13 14:02:35;;;;;;;7.65;2.55;;;29.20;51.20;;;;;;6258834;22;20870;-81
2022/04/13 14:05:01;;;;;;;7.55;2.38;;;29.40;50.20;;;;;;6258725;22;20411;-81
2022/04/13 14:07:26;;;;;;;7.68;2.28;;;30.10;51.00;;;;;;6286555;22;20127;-81
2022/04/13 14:09:53;;;;;;;5.03;2.35;;;30.80;49.10;;;;;;6284621;22;20008;-82
2022/04/13 14:12:19;;;;;;;8.63;2.83;;;31.80;49.70;;;;;;6286606;22;20059;-81
2022/04/13 14:14:44;;;;;;;8.25;2.92;;;31.70;51.10;;;;;;6254732;22;20012;-82
2022/04/13 14:17:10;;;;;;;5.22;2.95;;;31.90;48.50;;;;;;6256304;22;20004;-82
2022/04/13 14:19:35;;;;;;;7.90;2.85;;;31.80;48.60;;;;;;6255911;22;20072;-81
2022/04/13 14:22:01;;;;;;;7.10;2.83;;;31.30;48.60;;;;;;6256025;22;20012;-82
2022/04/13 14:24:27;;;;;;;7.18;2.70;;;31.70;46.30;;;;;;6256741;22;20012;-81
2022/04/13 14:26:52;;;;;;;6.38;2.38;;;31.30;43.70;;;;;;6256014;22;20031;-81
2022/04/13 14:29:18;;;;;;;6.75;3.10;;;31.60;46.10;;;;;;6256335;22;20028;-82
2022/04/13 14:31:44;;;;;;;6.82;3.10;;;32.00;46.10;;;;;;6257614;22;20014;-82
2022/04/13 14:34:10;;;;;;;6.47;2.92;;;32.40;46.60;;;;;;6230533;22;20016;-81
2022/04/13 14:36:37;;;;;;;6.63;2.88;;;32.80;44.50;;;;;;6258182;22;20008;-82
2022/04/13 14:39:02;;;;;;;5.22;2.83;;;32.60;44.90;;;;;;6256417;22;20008;-81
2022/04/13 14:41:28;;;;;;;5.55;2.95;;;33.30;44.60;;;;;;6258283;22;20015;-80
2022/04/13 14:43:54;;;;;;;7.75;3.70;;;33.60;44.60;;;;;;6260504;22;20060;-79
2022/04/13 14:46:19;;;;;;;8.95;3.33;;;34.40;42.90;;;;;;6259502;22;20005;-79
2022/04/13 14:48:45;;;;;;;7.75;3.28;;;33.90;43.30;;;;;;6232860;22;20024;-79
2022/04/13 14:51:11;;;;;;;6.78;2.83;;;33.50;42.80;;;;;;6262044;22;20005;-81
2022/04/13 14:53:36;;;;;;;8.10;3.05;;;34.00;42.60;;;;;;6255556;22;20376;-80
2022/04/13 14:56:02;;;;;;;9.35;2.85;;;34.10;41.80;;;;;;6255217;22;20036;-80
2022/04/13 14:58:27;;;;;;;7.50;2.95;;;33.30;43.20;;;;;;6255428;22;20012;-79
2022/04/13 15:00:53;;;;;;;6.75;3.45;;;34.60;41.70;;;;;;6229076;22;20004;-80
2022/04/13 15:03:18;;;;;;;7.63;3.20;;;36.00;38.70;;;;;;6228086;22;20008;-81
2022/04/13 15:05:44;;;;;;;7.75;2.80;;;34.90;39.80;;;;;;6255525;22;20012;-81
2022/04/13 15:08:10;;;;;;;6.60;3.58;;;34.30;41.20;;;;;;6228266;22;20001;-81
2022/04/13 15:10:35;;;;;;;5.75;2.88;;;34.80;42.70;;;;;;6228910;22;20345;-81
2022/04/13 15:13:01;;;;;;;11.85;4.53;;;34.80;41.80;;;;;;6229320;22;20017;-81
2022/04/13 15:15:26;;;;;;;7.68;4.13;;;35.20;40.70;;;;;;6234973;22;20013;-80
2022/04/13 15:17:53;;;;;;;11.10;4.57;;;35.40;43.10;;;;;;6273001;22;20009;-80
2022/04/13 15:20:19;;;;;;;10.00;3.95;;;35.00;41.00;;;;;;6276355;22;20019;-81
2022/04/13 15:22:44;;;;;;;9.80;3.60;;;35.00;41.00;;;;;;6247929;22;20345;-80
2022/04/13 15:25:11;;;;;;;8.43;3.75;;;35.70;40.00;;;;;;6247319;22;20013;-80
2022/04/13 15:27:42;;;;;;;9.13;4.35;;;35.30;39.80;;;;;;6252371;22;20436;-80
2022/04/13 15:30:16;;;;;;;10.93;3.85;;;35.80;41.80;;;;;;6250391;22;20036;-80
2022/04/13 15:32:43;;;;;;;10.07;4.20;;;34.90;41.80;;;;;;6243008;22;20036;-81
2022/04/13 15:35:09;;;;;;;6.45;4.15;;;34.90;40.00;;;;;;6247411;22;20570;-77
2022/04/13 15:37:35;;;;;;;7.30;3.78;;;35.70;38.40;;;;;;6252277;22;20005;-78
2022/04/13 15:40:01;;;;;;;8.85;4.45;;;36.20;40.80;;;;;;6252080;22;20001;-78
2022/04/13 15:42:33;;;;;;;9.32;4.20;;;36.00;41.00;;;;;;6251733;22;20005;-79
2022/04/13 15:44:59;;;;;;;10.80;4.20;;;36.60;39.10;;;;;;6250164;22;20543;-79
2022/04/13 15:47:25;;;;;;;8.98;4.57;;;36.80;41.30;;;;;;6251780;22;20145;-78
2022/04/13 15:49:51;;;;;;;9.27;4.40;;;36.70;38.70;;;;;;6250309;22;20123;-78
2022/04/13 15:52:17;;;;;;;8.18;4.20;;;36.00;39.00;;;;;;6250486;22;20009;-77
2022/04/13 15:54:43;;;;;;;7.15;3.83;;;34.80;41.50;;;;;;6251838;22;20555;-78
2022/04/13 15:57:09;;;;;;;7.45;3.85;;;35.60;41.50;;;;;;6250489;22;20040;-78
2022/04/13 15:59:34;;;;;;;10.57;4.47;;;35.60;41.70;;;;;;6250431;22;20340;-78
2022/04/13 16:02:00;;;;;;;5.85;3.80;;;35.00;42.20;;;;;;6252821;22;20016;-78
2022/04/13 16:04:26;;;;;;;8.43;3.90;;;34.90;41.90;;;;;;6252818;22;20024;-81
2022/04/13 16:06:52;;;;;;;7.43;3.63;;;34.70;42.50;;;;;;6251184;22;20044;-71
2022/04/13 16:09:18;;;;;;;9.90;3.45;;;34.80;44.20;;;;;;6251731;22;20095;-71
2022/04/13 16:11:44;;;;;;;10.70;3.90;;;34.60;42.20;;;;;;6252031;22;20488;-72
2022/04/13 16:14:09;;;;;;;8.43;4.03;;;34.20;41.20;;;;;;6251882;22;20009;-70
2022/04/13 16:16:35;;;;;;;9.25;4.38;;;33.60;43.50;;;;;;6250742;22;20012;-71
2022/04/13 16:19:00;;;;;;;7.70;4.20;;;33.10;43.50;;;;;;6251751;22;20013;-71
2022/04/13 16:21:26;;;;;;;9.85;4.18;;;33.10;43.40;;;;;;6252023;22;20007;-72
2022/04/13 16:23:53;;;;;;;7.93;5.38;;;32.90;43.50;;;;;;6251896;22;20016;-70
2022/04/13 16:26:19;;;;;;;11.80;4.40;;;32.30;44.80;;;;;;6252295;22;20029;-71
2022/04/13 16:28:44;;;;;;;8.23;3.92;;;32.60;45.60;;;;;;6226065;22;20092;-72
2022/04/13 16:31:10;;;;;;;7.32;4.00;;;32.40;46.10;;;;;;6226232;22;20317;-71
2022/04/13 16:33:36;;;;;;;11.55;4.03;;;31.20;47.80;;;;;;6253380;22;20015;-72
2022/04/13 16:36:01;;;;;;;7.45;3.70;;;31.10;50.40;;;;;;6252896;22;20008;-72
2022/04/13 16:38:30;;;;;;;6.85;4.25;;;30.60;48.60;;;;;;6253189;22;20005;-71
2022/04/13 16:40:57;;;;;;;10.68;3.65;;;29.90;50.30;;;;;;6253155;22;20067;-73
2022/04/13 16:43:24;;;;;;;9.13;4.82;;;29.10;52.90;;;;;;6253025;22;20050;-71
2022/04/13 16:45:50;;;;;;;8.88;5.13;;;28.00;51.90;;;;;;6252802;22;20000;-74
2022/04/13 16:48:16;;;;;;;10.55;5.35;;;27.20;52.60;;;;;;6225870;22;20095;-72
2022/04/13 16:50:44;;;;;;;13.82;4.68;;;26.90;54.20;;;;;;6252540;22;20442;-72
2022/04/13 16:53:12;;;;;;;11.05;5.15;;;26.60;55.70;;;;;;6253371;22;20340;-72
2022/04/13 16:55:39;;;;;;;12.75;5.85;;;26.20;55.80;;;;;;6252746;22;20009;-74